Time;durP1;ratioP1;P1;durP2;ratioP2;P2;SDS_P1;SDS_P2;PMS_P1;PMS_P2;Temp;Humidity;BMP_temperature;BMP_pressure;BME280_temperature;BME280_humidity;BME280_pressure;Samples;Min_cycle;Max_cycle;Signal;HPM_P1;HPM_P2
2023/04/16 00:02:11;;;;;;;53.00;21.88;;;8.80;99.90;;;;;;5045377;28;20081;-85
2023/04/16 00:04:37;;;;;;;49.17;22.25;;;8.80;99.90;;;;;;5052634;28;20039;-86
2023/04/16 00:07:03;;;;;;;54.22;21.58;;;8.70;99.90;;;;;;5075524;28;20054;-86
2023/04/16 00:09:28;;;;;;;50.00;21.90;;;8.60;99.50;;;;;;5059206;28;20075;-85
2023/04/16 00:11:54;;;;;;;48.35;22.80;;;8.60;97.00;;;;;;5052445;28;20136;-85
2023/04/16 00:14:21;;;;;;;51.03;22.17;;;8.50;95.30;;;;;;5056302;28;20929;-85
2023/04/16 00:16:46;;;;;;;45.22;20.75;;;8.40;94.20;;;;;;5064382;28;20095;-85
2023/04/16 00:19:12;;;;;;;57.03;23.67;;;8.30;99.70;;;;;;5069875;28;20524;-85
2023/04/16 00:21:38;;;;;;;48.30;21.33;;;8.30;99.90;;;;;;5070546;28;20059;-85
2023/04/16 00:24:04;;;;;;;52.72;21.85;;;8.40;99.90;;;;;;5069974;28;20079;-85
2023/04/16 00:26:29;;;;;;;49.38;23.33;;;8.40;99.90;;;;;;5070590;28;20127;-84
2023/04/16 00:28:55;;;;;;;55.13;22.42;;;8.40;99.90;;;;;;5066899;28;20466;-84
2023/04/16 00:31:32;;;;;;;49.47;22.45;;;8.50;99.90;;;;;;5066305;28;20044;-85
2023/04/16 00:33:58;;;;;;;51.83;21.85;;;8.50;99.90;;;;;;5070451;28;20056;-85
2023/04/16 00:36:26;;;;;;;56.67;22.40;;;8.50;99.90;;;;;;5052009;28;20036;-84
2023/04/16 00:38:52;;;;;;;55.78;22.50;;;8.50;99.90;;;;;;5072770;28;20559;-85
2023/04/16 00:41:18;;;;;;;53.42;21.50;;;8.50;99.90;;;;;;5069395;28;20033;-85
2023/04/16 00:43:44;;;;;;;51.38;21.02;;;8.50;99.90;;;;;;5053517;28;20136;-85
2023/04/16 00:46:11;;;;;;;52.38;23.17;;;8.50;99.90;;;;;;5052452;28;20131;-85
2023/04/16 00:48:38;;;;;;;56.90;22.58;;;8.50;99.90;;;;;;5052587;28;20371;-87
2023/04/16 00:51:05;;;;;;;54.95;21.92;;;8.60;99.90;;;;;;5039515;28;20060;-86
2023/04/16 00:53:31;;;;;;;61.10;24.70;;;8.50;99.90;;;;;;5067520;28;20040;-88
2023/04/16 00:55:58;;;;;;;59.65;22.30;;;8.50;99.90;;;;;;5068965;28;20044;-84
2023/04/16 00:58:24;;;;;;;60.70;23.42;;;8.50;99.90;;;;;;5050461;28;20044;-86
2023/04/16 01:00:50;;;;;;;55.33;23.35;;;8.50;99.90;;;;;;5052642;28;20040;-85
2023/04/16 01:03:16;;;;;;;60.58;24.42;;;8.50;99.90;;;;;;5038463;28;20083;-87
2023/04/16 01:05:42;;;;;;;66.28;24.83;;;8.50;99.90;;;;;;5052669;28;20394;-86
2023/04/16 01:08:20;;;;;;;57.50;23.88;;;8.50;99.90;;;;;;5056096;28;20353;-89
2023/04/16 01:10:46;;;;;;;57.45;23.13;;;8.50;99.90;;;;;;5049037;28;20049;-87
2023/04/16 01:13:12;;;;;;;62.75;23.98;;;8.50;99.90;;;;;;5049994;28;20056;-86
2023/04/16 01:15:38;;;;;;;55.40;23.83;;;8.50;99.90;;;;;;5069741;28;20048;-85
2023/04/16 01:18:16;;;;;;;58.90;24.25;;;8.50;99.90;;;;;;5063375;28;20393;-86
2023/04/16 01:20:42;;;;;;;59.58;25.10;;;8.50;99.90;;;;;;5068873;28;20036;-85
2023/04/16 01:23:07;;;;;;;57.75;25.38;;;8.50;99.90;;;;;;5069490;28;20048;-85
2023/04/16 01:25:33;;;;;;;54.17;22.92;;;8.40;99.90;;;;;;5069503;28;20091;-86
2023/04/16 01:27:59;;;;;;;60.85;25.13;;;8.30;99.90;;;;;;5052431;28;20053;-86
2023/04/16 01:30:25;;;;;;;61.70;24.85;;;8.40;99.90;;;;;;5031637;28;20048;-86
2023/04/16 01:32:50;;;;;;;63.28;23.75;;;8.40;99.90;;;;;;5045892;28;20464;-86
2023/04/16 01:35:17;;;;;;;58.60;23.88;;;8.40;99.90;;;;;;5065050;28;20152;-86
2023/04/16 01:37:43;;;;;;;59.03;24.13;;;8.40;99.90;;;;;;5059976;28;20478;-87
2023/04/16 01:40:09;;;;;;;55.17;24.65;;;8.30;99.90;;;;;;5036299;28;20053;-85
2023/04/16 01:42:36;;;;;;;64.85;24.77;;;8.30;99.90;;;;;;5053487;28;20164;-85
2023/04/16 01:45:01;;;;;;;57.17;23.05;;;8.30;99.90;;;;;;5039889;28;20048;-85
2023/04/16 01:47:27;;;;;;;62.80;25.33;;;8.30;99.90;;;;;;5059214;28;20505;-86
2023/04/16 01:49:53;;;;;;;60.58;24.10;;;8.30;99.90;;;;;;5072615;28;20040;-85
2023/04/16 01:52:18;;;;;;;60.88;24.50;;;8.30;99.90;;;;;;5084297;28;20400;-85
2023/04/16 01:54:44;;;;;;;62.47;23.98;;;8.30;99.90;;;;;;5052870;28;20042;-85
2023/04/16 01:57:10;;;;;;;60.55;25.58;;;8.30;99.90;;;;;;5050134;28;20044;-86
2023/04/16 01:59:35;;;;;;;58.80;23.45;;;8.30;99.90;;;;;;5056251;28;20104;-85
2023/04/16 02:02:10;;;;;;;61.83;25.90;;;8.30;99.90;;;;;;5052397;28;20044;-85
2023/04/16 02:04:40;;;;;;;62.28;25.42;;;8.30;99.90;;;;;;5056078;28;20457;-87
2023/04/16 02:07:07;;;;;;;60.65;25.15;;;8.30;99.90;;;;;;5057127;28;20076;-85
2023/04/16 02:09:37;;;;;;;65.32;25.15;;;8.30;99.90;;;;;;5083798;28;20055;-85
2023/04/16 02:12:03;;;;;;;65.85;26.73;;;8.30;99.90;;;;;;5060219;28;20044;-85
2023/04/16 02:14:29;;;;;;;57.42;24.52;;;8.30;99.90;;;;;;5069496;28;20055;-86
2023/04/16 02:16:55;;;;;;;55.35;24.58;;;8.30;99.90;;;;;;5076578;28;20093;-85
2023/04/16 02:19:21;;;;;;;58.08;25.33;;;8.30;99.90;;;;;;5064911;28;20102;-86
2023/04/16 02:21:47;;;;;;;63.28;25.83;;;8.20;99.90;;;;;;5075485;28;20048;-85
2023/04/16 02:24:13;;;;;;;66.05;25.48;;;8.20;99.90;;;;;;5060081;28;20401;-85
2023/04/16 02:26:39;;;;;;;63.63;24.77;;;8.20;99.90;;;;;;5059390;28;20044;-86
2023/04/16 02:29:05;;;;;;;64.22;27.00;;;8.30;99.90;;;;;;5089624;28;20121;-85
2023/04/16 02:31:31;;;;;;;62.35;26.45;;;8.20;99.90;;;;;;5074182;28;20630;-85
2023/04/16 02:33:57;;;;;;;68.30;25.90;;;8.20;99.90;;;;;;5054423;28;20047;-86
2023/04/16 02:36:23;;;;;;;60.35;26.02;;;8.20;99.90;;;;;;5075457;28;20036;-85
2023/04/16 02:38:49;;;;;;;58.55;24.23;;;8.20;99.90;;;;;;5078176;28;20048;-87
2023/04/16 02:41:14;;;;;;;54.92;23.42;;;8.20;99.90;;;;;;5059262;28;20051;-85
2023/04/16 02:43:40;;;;;;;60.50;25.90;;;8.10;99.90;;;;;;5042154;28;20044;-85
2023/04/16 02:46:06;;;;;;;67.70;24.60;;;8.10;99.90;;;;;;5076052;28;20040;-86
2023/04/16 02:48:31;;;;;;;62.63;25.90;;;8.10;99.90;;;;;;5041915;28;20102;-85
2023/04/16 02:50:57;;;;;;;67.90;25.88;;;8.20;99.90;;;;;;5059198;28;20063;-85
2023/04/16 02:53:23;;;;;;;65.82;25.90;;;8.10;99.90;;;;;;5104735;28;20044;-87
2023/04/16 02:55:53;;;;;;;64.07;24.63;;;8.20;99.90;;;;;;5076106;28;20070;-85
2023/04/16 02:58:20;;;;;;;66.10;25.92;;;8.20;99.90;;;;;;5059221;28;20127;-86
2023/04/16 03:00:45;;;;;;;65.07;26.42;;;8.10;99.90;;;;;;5058813;28;20374;-85
2023/04/16 03:03:11;;;;;;;70.60;26.48;;;8.20;99.90;;;;;;5066663;28;20056;-86
2023/04/16 03:05:37;;;;;;;71.43;28.10;;;8.20;99.90;;;;;;5055712;28;20079;-85
2023/04/16 03:08:03;;;;;;;70.00;26.70;;;8.20;99.90;;;;;;5039051;28;20041;-85
2023/04/16 03:10:29;;;;;;;73.18;28.77;;;8.20;99.90;;;;;;5081884;28;20048;-85
2023/04/16 03:12:55;;;;;;;75.97;27.83;;;8.10;99.90;;;;;;5058388;28;20047;-85
2023/04/16 03:15:21;;;;;;;75.18;27.48;;;8.20;99.90;;;;;;5095749;28;20055;-86
2023/04/16 03:17:46;;;;;;;68.97;26.10;;;8.20;99.90;;;;;;5073853;28;20493;-86
2023/04/16 03:20:13;;;;;;;72.10;26.75;;;8.20;99.90;;;;;;5062437;28;20071;-85
2023/04/16 03:22:39;;;;;;;69.88;26.27;;;8.20;99.90;;;;;;5048608;28;20087;-85
2023/04/16 03:25:06;;;;;;;70.93;27.20;;;8.20;99.90;;;;;;5052032;28;20044;-85
2023/04/16 03:27:32;;;;;;;72.22;26.60;;;8.20;99.90;;;;;;5055722;28;20067;-86
2023/04/16 03:29:58;;;;;;;70.65;24.55;;;8.20;99.90;;;;;;5075198;28;20051;-85
2023/04/16 03:32:23;;;;;;;63.80;25.65;;;8.20;99.90;;;;;;5061859;28;20048;-85
2023/04/16 03:34:49;;;;;;;70.30;25.67;;;8.20;99.90;;;;;;5074875;28;20063;-85
2023/04/16 03:37:15;;;;;;;64.85;24.67;;;8.20;99.90;;;;;;5075043;28;20059;-86
2023/04/16 03:39:40;;;;;;;65.68;25.92;;;8.20;99.90;;;;;;5041356;28;20040;-86
2023/04/16 03:42:06;;;;;;;61.28;24.48;;;8.20;99.90;;;;;;5074899;28;20036;-85
2023/04/16 03:44:32;;;;;;;67.55;24.77;;;8.30;99.90;;;;;;5057337;28;20052;-86
2023/04/16 03:46:58;;;;;;;63.55;24.85;;;8.30;99.90;;;;;;5092173;28;20055;-85
2023/04/16 03:49:23;;;;;;;69.90;25.92;;;8.20;99.90;;;;;;5074943;28;20500;-85
2023/04/16 03:51:50;;;;;;;63.50;24.63;;;8.30;99.90;;;;;;5074674;28;20632;-85
2023/04/16 03:54:15;;;;;;;70.88;25.33;;;8.30;99.90;;;;;;5058132;28;20105;-85
2023/04/16 03:56:41;;;;;;;73.40;26.23;;;8.30;99.90;;;;;;5074439;28;20051;-85
2023/04/16 03:59:08;;;;;;;79.10;26.63;;;8.30;99.90;;;;;;5055433;28;20044;-86
2023/04/16 04:01:34;;;;;;;70.25;27.33;;;8.20;99.90;;;;;;5060358;28;20401;-85
2023/04/16 04:04:00;;;;;;;75.03;26.00;;;8.30;99.90;;;;;;5057749;28;20119;-85
2023/04/16 04:06:26;;;;;;;75.70;26.83;;;8.20;99.90;;;;;;5041595;28;20589;-85
2023/04/16 04:08:52;;;;;;;64.22;26.90;;;8.30;99.90;;;;;;5077986;28;20040;-85
2023/04/16 04:11:18;;;;;;;60.22;24.63;;;8.20;99.90;;;;;;5057507;28;20040;-85
2023/04/16 04:13:44;;;;;;;60.15;24.65;;;8.30;99.90;;;;;;5052561;28;20122;-86
2023/04/16 04:16:09;;;;;;;56.95;23.55;;;8.20;99.90;;;;;;5060700;28;20490;-86
2023/04/16 04:18:35;;;;;;;56.10;22.80;;;8.20;99.90;;;;;;5072924;28;20032;-86
2023/04/16 04:21:08;;;;;;;57.47;25.05;;;8.20;99.90;;;;;;5055914;28;20078;-86
2023/04/16 04:23:34;;;;;;;53.33;23.75;;;8.20;99.90;;;;;;5069989;28;20471;-87
2023/04/16 04:26:02;;;;;;;66.10;25.10;;;8.20;99.90;;;;;;5051924;28;20043;-86
2023/04/16 04:28:29;;;;;;;64.05;24.58;;;8.20;99.90;;;;;;5065359;28;20043;-86
2023/04/16 04:30:57;;;;;;;52.22;22.50;;;8.20;99.90;;;;;;5085636;28;20081;-85
2023/04/16 04:33:22;;;;;;;56.92;24.90;;;8.20;99.90;;;;;;5073865;28;20059;-85
2023/04/16 04:35:48;;;;;;;61.10;24.88;;;8.20;99.90;;;;;;5036645;28;21020;-85
2023/04/16 04:38:18;;;;;;;54.70;24.27;;;8.20;99.90;;;;;;5049823;28;20080;-85
2023/04/16 04:40:44;;;;;;;54.88;24.33;;;8.20;99.90;;;;;;5072580;28;20409;-85
2023/04/16 04:43:10;;;;;;;58.25;24.75;;;8.20;99.90;;;;;;5056416;28;20060;-85
2023/04/16 04:45:36;;;;;;;62.33;23.90;;;8.20;99.90;;;;;;5056867;28;20040;-87
2023/04/16 04:48:01;;;;;;;65.75;21.73;;;8.20;99.90;;;;;;5056730;28;20063;-86
2023/04/16 04:50:27;;;;;;;54.33;22.92;;;8.20;99.90;;;;;;5056533;28;20044;-86
2023/04/16 04:52:53;;;;;;;59.95;23.25;;;8.20;99.90;;;;;;5056112;28;20219;-86
2023/04/16 04:55:18;;;;;;;61.20;22.40;;;8.20;99.90;;;;;;5081690;28;20043;-86
2023/04/16 04:57:44;;;;;;;61.58;22.50;;;8.10;99.90;;;;;;5071631;28;20047;-86
2023/04/16 05:00:10;;;;;;;55.10;22.05;;;8.20;99.90;;;;;;5052721;28;20048;-85
2023/04/16 05:02:36;;;;;;;58.95;22.17;;;8.10;99.90;;;;;;5062012;28;20035;-86
2023/04/16 05:05:02;;;;;;;63.58;23.02;;;8.10;99.90;;;;;;5054793;28;20102;-85
2023/04/16 05:07:28;;;;;;;68.00;23.45;;;8.00;99.90;;;;;;5071736;28;20050;-85
2023/04/16 05:09:54;;;;;;;49.65;21.95;;;8.00;99.90;;;;;;5056775;28;20135;-85
2023/04/16 05:12:19;;;;;;;57.67;22.77;;;8.00;99.90;;;;;;5056193;28;20036;-87
2023/04/16 05:14:45;;;;;;;54.95;23.02;;;8.00;99.90;;;;;;5053149;28;20060;-86
2023/04/16 05:17:11;;;;;;;60.70;23.17;;;8.00;99.90;;;;;;5056105;28;20044;-85
2023/04/16 05:19:36;;;;;;;55.08;24.00;;;8.00;99.90;;;;;;5073107;28;20079;-85
2023/04/16 05:22:02;;;;;;;54.72;23.30;;;8.10;99.90;;;;;;5040540;28;20078;-86
2023/04/16 05:24:28;;;;;;;57.38;21.98;;;8.00;99.90;;;;;;5063329;28;20044;-86
2023/04/16 05:26:55;;;;;;;61.65;23.23;;;8.00;99.90;;;;;;5079671;28;20048;-86
2023/04/16 05:29:21;;;;;;;55.88;22.27;;;8.00;99.90;;;;;;5045135;28;20055;-85
2023/04/16 05:31:46;;;;;;;65.70;23.08;;;8.00;99.90;;;;;;5054352;28;20052;-86
2023/04/16 05:34:12;;;;;;;57.00;22.73;;;8.00;99.90;;;;;;5075474;28;20086;-86
2023/04/16 05:36:38;;;;;;;63.42;23.20;;;8.10;99.90;;;;;;5074487;28;20126;-86
2023/04/16 05:39:03;;;;;;;50.85;22.65;;;8.10;99.90;;;;;;5039406;28;20818;-86
2023/04/16 05:41:29;;;;;;;66.70;22.80;;;8.10;99.90;;;;;;5079022;28;20417;-85
2023/04/16 05:43:55;;;;;;;62.17;24.92;;;8.10;99.90;;;;;;5049422;28;20106;-86
2023/04/16 05:46:20;;;;;;;64.28;23.48;;;8.10;99.90;;;;;;5072839;28;20366;-86
2023/04/16 05:48:46;;;;;;;66.15;24.02;;;8.10;99.90;;;;;;5076813;28;20040;-87
2023/04/16 05:51:12;;;;;;;68.18;24.50;;;8.20;99.90;;;;;;5076634;28;20485;-85
2023/04/16 05:53:37;;;;;;;70.38;23.15;;;8.20;99.90;;;;;;5060582;28;20401;-86
2023/04/16 05:56:03;;;;;;;56.13;23.20;;;8.30;99.90;;;;;;5056552;28;20106;-86
2023/04/16 05:58:29;;;;;;;60.13;23.60;;;8.30;99.90;;;;;;5059914;28;20051;-87
2023/04/16 06:00:54;;;;;;;56.58;22.45;;;8.30;99.90;;;;;;5075860;28;20047;-85
2023/04/16 06:03:20;;;;;;;67.00;23.75;;;8.30;99.90;;;;;;5077796;28;20119;-85
2023/04/16 06:05:46;;;;;;;60.67;23.75;;;8.40;99.90;;;;;;5079191;28;20036;-87
2023/04/16 06:08:11;;;;;;;56.35;23.42;;;8.50;99.90;;;;;;5060843;28;20106;-85
2023/04/16 06:10:37;;;;;;;58.92;22.98;;;8.60;99.90;;;;;;5059299;28;20043;-85
2023/04/16 06:13:03;;;;;;;55.78;22.48;;;8.70;99.90;;;;;;5059395;28;20048;-85
2023/04/16 06:15:29;;;;;;;57.97;23.58;;;8.80;99.90;;;;;;5059363;28;20056;-85
2023/04/16 06:17:55;;;;;;;58.13;22.90;;;8.90;99.70;;;;;;5076717;28;20076;-85
2023/04/16 06:20:21;;;;;;;64.32;24.45;;;8.90;91.70;;;;;;5059313;28;20523;-87
2023/04/16 06:22:46;;;;;;;55.30;24.02;;;8.90;81.90;;;;;;5059447;28;20047;-85
2023/04/16 06:25:12;;;;;;;56.65;21.95;;;8.90;68.50;;;;;;5045847;28;20044;-85
2023/04/16 06:27:38;;;;;;;57.05;22.90;;;8.90;62.40;;;;;;5059228;28;20047;-85
2023/04/16 06:30:05;;;;;;;55.53;22.00;;;8.90;62.70;;;;;;5088016;28;20040;-85
2023/04/16 06:32:30;;;;;;;49.88;21.52;;;8.90;53.40;;;;;;5071803;28;20540;-85
2023/04/16 06:34:57;;;;;;;56.42;22.63;;;8.90;49.70;;;;;;5049310;28;20044;-87
2023/04/16 06:37:23;;;;;;;50.60;21.45;;;8.90;43.20;;;;;;5063157;28;20047;-85
2023/04/16 06:39:48;;;;;;;53.63;21.27;;;8.90;45.80;;;;;;5076478;28;20594;-85
2023/04/16 06:42:14;;;;;;;48.85;22.10;;;9.00;46.10;;;;;;5059629;28;20048;-85
2023/04/16 06:44:40;;;;;;;52.38;21.38;;;8.90;35.20;;;;;;5073102;28;20052;-85
2023/04/16 06:47:06;;;;;;;49.38;21.63;;;9.00;31.60;;;;;;5063004;28;20086;-85
2023/04/16 06:49:31;;;;;;;48.97;20.88;;;8.90;25.90;;;;;;5059471;28;20126;-85
2023/04/16 06:51:57;;;;;;;45.08;20.10;;;8.90;20.80;;;;;;5074898;28;20119;-86
2023/04/16 06:54:23;;;;;;;46.97;19.85;;;8.90;16.90;;;;;;5076003;28;20044;-85
2023/04/16 06:56:48;;;;;;;41.95;19.10;;;8.90;22.20;;;;;;5076522;28;20040;-85
2023/04/16 06:59:14;;;;;;;46.42;19.17;;;8.90;17.90;;;;;;5059105;28;20155;-85
2023/04/16 07:01:40;;;;;;;39.50;19.90;;;8.90;11.30;;;;;;5093106;28;20501;-86
2023/04/16 07:04:06;;;;;;;48.03;20.67;;;8.90;12.80;;;;;;5075658;28;20058;-85
2023/04/16 07:06:31;;;;;;;43.95;20.02;;;9.00;15.00;;;;;;5076415;28;20394;-85
2023/04/16 07:08:57;;;;;;;43.55;19.13;;;9.00;9.70;;;;;;5071644;28;20048;-86
2023/04/16 07:11:24;;;;;;;45.13;21.05;;;9.00;6.40;;;;;;5067080;28;20370;-85
2023/04/16 07:13:52;;;;;;;38.20;18.48;;;9.10;9.80;;;;;;5058536;28;20090;-86
2023/04/16 07:16:17;;;;;;;43.47;19.25;;;9.20;7.90;;;;;;5026421;28;20054;-85
2023/04/16 07:18:43;;;;;;;42.33;19.77;;;9.30;4.50;;;;;;5076243;28;20134;-85
2023/04/16 07:21:09;;;;;;;40.92;19.73;;;9.30;1.00;;;;;;5054121;28;20051;-85
2023/04/16 07:23:35;;;;;;;42.17;19.90;;;9.40;1.00;;;;;;5060344;28;20439;-85
2023/04/16 07:26:00;;;;;;;37.80;18.48;;;9.50;1.00;;;;;;5081453;28;20048;-85
2023/04/16 07:28:26;;;;;;;45.97;19.50;;;9.50;1.00;;;;;;5058655;28;20040;-86
2023/04/16 07:30:52;;;;;;;43.72;20.05;;;9.50;1.00;;;;;;5058710;28;20044;-85
2023/04/16 07:33:17;;;;;;;35.95;18.58;;;9.50;1.00;;;;;;5058325;28;20552;-85
2023/04/16 07:35:44;;;;;;;47.75;20.05;;;9.50;1.00;;;;;;5057379;28;20655;-85
2023/04/16 07:38:10;;;;;;;47.95;19.25;;;9.50;1.00;;;;;;5058058;28;20056;-86
2023/04/16 07:40:36;;;;;;;44.78;19.13;;;9.50;1.00;;;;;;5089405;28;20485;-86
2023/04/16 07:43:02;;;;;;;41.58;17.63;;;9.60;1.00;;;;;;5059913;28;20055;-87
2023/04/16 07:45:27;;;;;;;39.17;18.45;;;9.60;1.00;;;;;;5041463;28;20040;-86
2023/04/16 07:47:53;;;;;;;50.35;19.27;;;9.70;1.00;;;;;;5060217;28;20036;-85
2023/04/16 07:50:19;;;;;;;42.05;17.52;;;9.80;1.00;;;;;;5050877;28;20169;-86
2023/04/16 07:52:46;;;;;;;43.78;18.25;;;9.90;1.00;;;;;;5057109;28;20523;-86
2023/04/16 07:55:11;;;;;;;40.95;18.48;;;10.00;1.00;;;;;;5056407;28;20409;-86
2023/04/16 07:57:37;;;;;;;33.30;16.83;;;10.10;1.00;;;;;;5086513;28;20040;-86
2023/04/16 08:00:03;;;;;;;41.75;17.92;;;10.20;1.00;;;;;;5056961;28;20049;-88
2023/04/16 08:02:29;;;;;;;37.40;17.58;;;10.20;1.00;;;;;;5057691;28;20052;-86
2023/04/16 08:04:55;;;;;;;40.67;15.95;;;10.40;1.00;;;;;;5067035;28;20048;-85
2023/04/16 08:07:21;;;;;;;37.53;16.08;;;10.50;1.00;;;;;;5028413;28;20079;-85
2023/04/16 08:09:53;;;;;;;44.15;16.90;;;10.50;1.00;;;;;;5047480;28;20512;-88
2023/04/16 08:12:19;;;;;;;41.88;15.77;;;10.60;1.00;;;;;;5088998;28;20050;-86
2023/04/16 08:14:46;;;;;;;39.15;16.23;;;10.70;1.00;;;;;;5074026;28;20119;-86
2023/04/16 08:17:12;;;;;;;41.65;16.52;;;10.70;1.00;;;;;;5067020;28;20485;-85
2023/04/16 08:19:38;;;;;;;35.03;15.68;;;10.70;1.00;;;;;;5060898;28;20070;-86
2023/04/16 08:22:04;;;;;;;36.40;16.17;;;10.80;1.00;;;;;;5073587;28;20039;-85
2023/04/16 08:24:30;;;;;;;39.85;16.23;;;10.90;1.00;;;;;;5045191;28;20067;-86
2023/04/16 08:26:55;;;;;;;37.20;16.33;;;11.10;1.00;;;;;;5080264;28;20050;-86
2023/04/16 08:29:24;;;;;;;38.70;17.10;;;11.20;1.00;;;;;;5039392;28;20534;-85
2023/04/16 08:31:49;;;;;;;32.30;15.13;;;11.30;1.00;;;;;;5023878;28;20044;-89
2023/04/16 08:34:15;;;;;;;36.05;15.60;;;11.30;99.90;;;;;;5039888;28;20062;-87
2023/04/16 08:36:41;;;;;;;33.67;14.95;;;11.40;99.90;;;;;;5072920;28;20404;-86
2023/04/16 08:39:07;;;;;;;37.40;17.42;;;11.40;99.90;;;;;;5096987;28;20044;-90
2023/04/16 08:41:35;;;;;;;40.92;16.33;;;11.60;99.90;;;;;;5069469;28;20063;-85
2023/04/16 08:44:13;;;;;;;40.17;16.65;;;12.00;1.00;;;;;;5073889;28;20044;-85
2023/04/16 08:46:40;;;;;;;40.08;15.55;;;12.30;99.90;;;;;;5045141;28;20054;-85
2023/04/16 08:49:07;;;;;;;43.95;17.55;;;12.60;99.90;;;;;;5057992;28;20051;-85
2023/04/16 08:51:40;;;;;;;33.97;16.48;;;12.80;99.90;;;;;;5044884;28;20097;-85
2023/04/16 08:54:09;;;;;;;37.85;15.10;;;13.00;99.90;;;;;;5061174;28;20494;-86
2023/04/16 08:56:36;;;;;;;28.63;14.40;;;13.20;99.90;;;;;;5090966;28;20097;-85
2023/04/16 08:59:04;;;;;;;32.88;13.80;;;13.40;99.90;;;;;;5057698;28;20048;-85
2023/04/16 09:01:32;;;;;;;32.50;15.23;;;13.50;27.50;;;;;;5040745;28;20050;-85
2023/04/16 09:04:00;;;;;;;29.00;13.60;;;13.50;4.20;;;;;;5057546;28;20131;-84
2023/04/16 09:06:30;;;;;;;31.98;15.32;;;13.70;27.00;;;;;;5066180;28;20057;-86
2023/04/16 09:08:57;;;;;;;29.30;13.70;;;13.80;1.00;;;;;;5060078;28;20048;-85
2023/04/16 09:11:24;;;;;;;26.88;14.88;;;14.00;1.00;;;;;;5073734;28;20537;-84
2023/04/16 09:13:50;;;;;;;34.80;13.65;;;14.10;1.00;;;;;;5066290;28;20117;-88
2023/04/16 09:16:16;;;;;;;26.30;13.30;;;14.20;1.00;;;;;;5031286;28;20044;-85
2023/04/16 09:18:42;;;;;;;23.02;13.70;;;14.40;1.00;;;;;;5060795;28;20035;-85
2023/04/16 09:21:12;;;;;;;28.35;13.98;;;14.50;1.00;;;;;;5064923;28;20070;-85
2023/04/16 09:23:38;;;;;;;25.20;12.73;;;14.70;99.90;;;;;;5072901;28;20120;-85
2023/04/16 09:26:05;;;;;;;27.52;13.18;;;14.90;99.90;;;;;;5072818;28;20044;-86
2023/04/16 09:28:45;;;;;;;24.92;12.80;;;14.90;99.90;;;;;;5057030;28;20398;-85
2023/04/16 09:31:16;;;;;;;23.30;13.68;;;14.90;99.90;;;;;;5045229;28;20504;-85
2023/04/16 09:33:43;;;;;;;29.45;12.02;;;15.00;99.90;;;;;;5074062;28;20044;-85
2023/04/16 09:36:09;;;;;;;25.35;12.85;;;14.90;99.90;;;;;;5040946;28;20446;-85
2023/04/16 09:38:49;;;;;;;23.80;12.57;;;15.00;99.90;;;;;;5076383;28;20552;-85
2023/04/16 09:41:15;;;;;;;25.30;12.70;;;15.20;99.90;;;;;;5072398;28;20123;-85
2023/04/16 09:43:48;;;;;;;25.75;12.88;;;15.40;99.90;;;;;;5020171;28;20132;-85
2023/04/16 09:46:14;;;;;;;22.35;12.07;;;15.50;99.90;;;;;;5053402;28;21183;-85
2023/04/16 09:48:39;;;;;;;17.23;10.98;;;15.60;99.90;;;;;;5053266;28;20102;-85
2023/04/16 09:51:06;;;;;;;24.42;12.32;;;15.50;99.90;;;;;;5037252;28;20141;-85
2023/04/16 09:53:32;;;;;;;21.70;11.70;;;15.70;99.90;;;;;;5053456;28;20044;-84
2023/04/16 09:55:58;;;;;;;25.33;11.50;;;16.00;99.90;;;;;;5053903;28;20117;-84
2023/04/16 09:58:24;;;;;;;21.90;11.75;;;16.20;99.90;;;;;;5063891;28;20048;-84
2023/04/16 10:01:11;;;;;;;22.48;12.15;;;16.30;99.90;;;;;;5069824;28;20120;-87
2023/04/16 10:03:38;;;;;;;23.90;11.73;;;16.50;99.90;;;;;;5063284;28;20058;-84
2023/04/16 10:06:15;;;;;;;21.33;12.57;;;16.80;99.90;;;;;;5047137;28;20132;-85
2023/04/16 10:08:57;;;;;;;23.45;12.00;;;16.80;27.70;;;;;;5047779;28;20126;-85
2023/04/16 10:11:23;;;;;;;21.67;11.73;;;16.80;65.60;;;;;;5070215;28;20048;-85
2023/04/16 10:13:50;;;;;;;23.70;11.68;;;16.90;99.90;;;;;;5056879;28;20091;-84
2023/04/16 10:16:16;;;;;;;20.05;10.70;;;17.00;99.90;;;;;;5070523;28;20049;-84
2023/04/16 10:18:45;;;;;;;18.73;11.25;;;17.10;99.90;;;;;;5069405;28;20137;-84
2023/04/16 10:21:11;;;;;;;18.67;12.20;;;17.30;91.00;;;;;;5069879;28;20072;-86
2023/04/16 10:23:41;;;;;;;23.17;11.80;;;17.40;69.70;;;;;;5073579;28;20040;-85
2023/04/16 10:26:07;;;;;;;19.05;11.10;;;17.30;15.40;;;;;;5055406;28;20382;-85
2023/04/16 10:28:34;;;;;;;19.42;11.27;;;17.40;53.10;;;;;;5038644;28;20044;-84
2023/04/16 10:31:06;;;;;;;18.92;11.25;;;17.80;87.70;;;;;;5066295;28;20489;-84
2023/04/16 10:33:38;;;;;;;17.23;11.55;;;18.20;41.40;;;;;;5082565;28;20051;-85
2023/04/16 10:36:15;;;;;;;21.17;10.82;;;18.50;1.00;;;;;;5067326;28;20512;-85
2023/04/16 10:38:46;;;;;;;20.13;11.40;;;18.30;1.00;;;;;;5056372;28;20051;-85
2023/04/16 10:41:12;;;;;;;15.63;10.98;;;18.30;1.00;;;;;;5072890;28;20037;-84
2023/04/16 10:43:45;;;;;;;18.55;11.07;;;18.40;1.00;;;;;;5056245;28;20083;-85
2023/04/16 10:46:36;;;;;;;16.13;11.10;;;18.30;1.00;;;;;;5056902;28;20138;-84
2023/04/16 10:49:18;;;;;;;17.20;10.70;;;18.00;1.00;;;;;;5057293;28;20063;-85
2023/04/16 10:51:59;;;;;;;17.00;10.90;;;17.90;1.00;;;;;;5073537;28;20764;-85
2023/04/16 10:54:33;;;;;;;16.70;11.15;;;18.00;1.00;;;;;;5057029;28;20048;-84
2023/04/16 10:57:03;;;;;;;16.77;9.48;;;17.90;1.00;;;;;;5056914;28;20185;-85
2023/04/16 10:59:33;;;;;;;15.20;10.95;;;18.10;1.00;;;;;;5069826;28;20052;-87
2023/04/16 11:02:01;;;;;;;18.13;10.82;;;18.50;1.00;;;;;;5073314;28;20103;-85
2023/04/16 11:04:35;;;;;;;21.52;10.57;;;18.70;1.00;;;;;;5077844;28;20043;-89
2023/04/16 11:07:14;;;;;;;18.48;10.63;;;18.70;1.00;;;;;;5069388;28;20048;-85
2023/04/16 11:10:11;;;;;;;17.05;10.45;;;18.40;1.00;;;;;;5073592;28;20059;-84
2023/04/16 11:12:39;;;;;;;18.45;10.27;;;18.70;1.00;;;;;;5057476;28;20041;-85
2023/04/16 11:15:05;;;;;;;19.23;10.75;;;18.90;1.00;;;;;;5053937;28;20045;-85
2023/04/16 11:17:37;;;;;;;16.88;10.48;;;19.30;1.00;;;;;;5055731;28;20044;-86
2023/04/16 11:20:08;;;;;;;16.20;10.38;;;19.40;1.00;;;;;;5055612;28;20486;-85
2023/04/16 11:22:35;;;;;;;17.25;10.80;;;19.20;1.00;;;;;;5055792;28;20044;-85
2023/04/16 11:25:01;;;;;;;18.60;10.90;;;18.90;1.00;;;;;;5052649;28;20131;-85
2023/04/16 11:27:29;;;;;;;17.63;11.35;;;18.70;1.00;;;;;;5052022;28;20116;-86
2023/04/16 11:30:10;;;;;;;17.10;11.55;;;18.80;1.00;;;;;;5072512;28;20052;-84
2023/04/16 11:32:37;;;;;;;17.63;11.13;;;19.50;1.00;;;;;;5049055;28;20087;-84
2023/04/16 11:35:15;;;;;;;16.38;11.23;;;19.90;1.00;;;;;;5048432;28;20074;-84
2023/04/16 11:37:41;;;;;;;15.63;11.00;;;20.00;1.00;;;;;;5042051;28;20079;-87
2023/04/16 11:40:11;;;;;;;23.63;11.45;;;20.00;1.00;;;;;;5053604;28;20037;-87
2023/04/16 11:42:41;;;;;;;20.27;11.40;;;19.70;1.00;;;;;;5057521;28;20052;-86
2023/04/16 11:45:11;;;;;;;14.80;11.40;;;19.30;1.00;;;;;;5051478;28;20110;-83
2023/04/16 11:47:51;;;;;;;16.20;10.73;;;19.20;1.00;;;;;;5065854;28;20056;-82
2023/04/16 11:50:27;;;;;;;17.70;11.07;;;18.80;1.00;;;;;;5072112;28;20040;-82
2023/04/16 11:52:55;;;;;;;17.13;10.82;;;18.70;1.00;;;;;;5055189;28;20508;-82
2023/04/16 11:55:21;;;;;;;17.40;10.88;;;18.50;1.00;;;;;;5072434;28;20127;-82
2023/04/16 11:57:48;;;;;;;18.67;10.82;;;18.30;1.00;;;;;;5055009;28;20044;-81
2023/04/16 12:00:14;;;;;;;18.40;10.27;;;18.10;1.00;;;;;;5071738;28;20520;-82
2023/04/16 12:02:45;;;;;;;18.63;11.65;;;18.40;1.00;;;;;;5066721;28;20057;-81
2023/04/16 12:05:34;;;;;;;21.40;10.90;;;18.80;1.00;;;;;;5047185;28;20064;-82
2023/04/16 12:08:29;;;;;;;17.90;10.68;;;19.10;1.00;;;;;;5051876;28;20057;-82
2023/04/16 12:10:55;;;;;;;18.20;10.55;;;19.70;1.00;;;;;;5054887;28;20575;-82
2023/04/16 12:13:22;;;;;;;19.13;10.80;;;20.20;1.00;;;;;;5055291;28;20041;-85
2023/04/16 12:15:55;;;;;;;18.65;11.05;;;20.50;1.00;;;;;;5066187;28;20461;-85
2023/04/16 12:18:28;;;;;;;19.27;10.73;;;20.60;1.00;;;;;;5071554;28;20041;-84
2023/04/16 12:20:54;;;;;;;22.30;11.10;;;20.50;1.00;;;;;;5054430;28;20496;-85
2023/04/16 12:23:27;;;;;;;19.50;11.20;;;20.60;1.00;;;;;;5085862;28;20063;-85
2023/04/16 12:25:54;;;;;;;20.80;11.13;;;20.80;1.00;;;;;;5062701;28;20516;-84
2023/04/16 12:28:33;;;;;;;19.15;10.95;;;20.80;1.00;;;;;;5054583;28;20048;-85
2023/04/16 12:30:59;;;;;;;20.60;11.88;;;21.00;1.00;;;;;;5069994;28;20088;-85
2023/04/16 12:33:25;;;;;;;19.38;10.93;;;21.30;1.00;;;;;;5059200;28;20052;-85
2023/04/16 12:35:51;;;;;;;18.55;11.32;;;21.80;1.00;;;;;;5074846;28;20043;-84
2023/04/16 12:38:17;;;;;;;18.08;11.68;;;22.30;1.00;;;;;;5045997;28;20075;-84